KNUQ/NUQ METAR and TAF weather

Enter ICAO airport designator
Station Type Date Time Source
KNUQ METAR 2019/02/16 02:56 UTC NOAA

KNUQ 160256Z 14003KT 10SM FEW046 SCT055 BKN070 08/05 A3007 RMK AO2 SLP184 60010 T00830050 53012


Station Type Date Time Source
KNUQ Decoded METAR 2019/02/16 02:56 UTC NOAA

MOFFETT FIELD, CA, United States (KNUQ) 37-26N 122-03W 19M
Feb 15, 2019 - 09:56 PM EST / 2019.02.16 0256 UTC
Wind: from the SE (140 degrees) at 3 MPH (3 KT):0
Visibility: 10 mile(s):0
Sky conditions: mostly cloudy
Temperature: 46.9 F (8.3 C)
Dew Point: 41.0 F (5.0 C)
Relative Humidity: 79%
Pressure (altimeter): 30.07 in. Hg (1018 hPa)
Pressure tendency: 0.04 inches (1.2 hPa) higher than three hours ago
ob: KNUQ 160256Z 14003KT 10SM FEW046 SCT055 BKN070 08/05 A3007 RMK AO2 SLP184 60010 T00830050 53012
cycle: 3

Station Type Date Time Source
KNUQ TAF 2018/01/28 15:27 UTC NOAA

TAF COR KNUQ 2815/2915 14012G22KT 9999 SCT020 BKN035 BKN050 BKN120 650509 651406 540009 540909 QNH3017INS
TEMPO 2816/2822 14018G30KT 8000 -SHRA BKN015 OVC030
FM282200 14020G32KT 9999 SCT020 BKN050 BKN120 650509 651406 540009 540909 QNH3009INS
TEMPO 2909/2915 8000 -SHRA BKN015 OVC040 T08/2915Z T12/2922Z COR 1523 FS30085


Example: see airport list